Time;durP1;ratioP1;P1;durP2;ratioP2;P2;SDS_P1;SDS_P2;PMS_P1;PMS_P2;Temp;Humidity;BMP_temperature;BMP_pressure;BME280_temperature;BME280_humidity;BME280_pressure;Samples;Min_cycle;Max_cycle;Signal;HPM_P1;HPM_P2
2022/01/05 00:00:27;;;;;;;2.55;2.35;;;8.00;99.90;;;;;;5090275;28;20476;-58
2022/01/05 00:02:52;;;;;;;2.30;2.10;;;8.00;99.90;;;;;;5090875;28;20027;-56
2022/01/05 00:05:18;;;;;;;2.10;2.00;;;7.90;99.90;;;;;;5072100;28;20024;-58
2022/01/05 00:07:44;;;;;;;3.22;2.92;;;7.90;99.90;;;;;;5091090;28;20023;-58
2022/01/05 00:10:10;;;;;;;3.63;2.13;;;7.90;99.90;;;;;;5091260;28;20032;-58
2022/01/05 00:12:35;;;;;;;1.80;1.70;;;7.90;99.90;;;;;;5091435;28;20032;-58
2022/01/05 00:15:01;;;;;;;1.70;1.60;;;7.80;99.90;;;;;;5091139;28;20032;-56
2022/01/05 00:17:28;;;;;;;1.65;1.58;;;7.80;99.90;;;;;;5090646;28;20106;-59
2022/01/05 00:19:54;;;;;;;2.15;1.67;;;7.80;99.90;;;;;;5091397;28;20028;-58
2022/01/05 00:22:20;;;;;;;2.30;2.10;;;7.80;99.90;;;;;;5094436;28;20028;-57
2022/01/05 00:24:46;;;;;;;1.90;1.80;;;7.70;99.90;;;;;;5095029;28;20101;-57
2022/01/05 00:27:11;;;;;;;2.65;2.45;;;7.70;99.90;;;;;;5095801;28;20073;-57
2022/01/05 00:29:37;;;;;;;2.70;2.60;;;7.60;99.90;;;;;;5095038;28;20024;-56
2022/01/05 00:32:03;;;;;;;2.50;2.40;;;7.60;99.90;;;;;;5095461;28;20020;-58
2022/01/05 00:34:29;;;;;;;4.88;3.10;;;7.50;99.90;;;;;;5073219;28;20029;-57
2022/01/05 00:36:55;;;;;;;3.15;2.95;;;7.50;99.90;;;;;;5075116;28;20040;-58
2022/01/05 00:39:20;;;;;;;2.67;2.58;;;7.50;99.90;;;;;;5059120;28;20024;-57
2022/01/05 00:41:46;;;;;;;2.58;2.40;;;7.50;99.90;;;;;;5076133;28;20026;-58
2022/01/05 00:44:12;;;;;;;2.42;2.22;;;7.50;99.90;;;;;;5094833;28;20036;-58
2022/01/05 00:46:38;;;;;;;2.53;2.40;;;7.50;99.90;;;;;;5094797;28;20032;-57
2022/01/05 00:49:04;;;;;;;2.38;2.25;;;7.50;99.90;;;;;;5095130;28;20028;-58
2022/01/05 00:51:29;;;;;;;3.80;3.45;;;7.50;99.90;;;;;;5094389;28;20036;-58
2022/01/05 00:53:55;;;;;;;2.90;2.70;;;7.50;99.90;;;;;;5094613;28;20028;-58
2022/01/05 00:56:21;;;;;;;3.20;3.00;;;7.40;99.90;;;;;;5094329;28;20036;-58
2022/01/05 00:58:46;;;;;;;3.03;2.83;;;7.40;99.90;;;;;;5094779;28;20458;-58
2022/01/05 01:01:12;;;;;;;3.25;3.05;;;7.40;99.90;;;;;;5094603;28;20035;-59
2022/01/05 01:03:39;;;;;;;2.50;2.40;;;7.30;99.90;;;;;;5076641;28;20387;-56
2022/01/05 01:06:05;;;;;;;3.28;3.08;;;7.40;99.90;;;;;;5094212;28;20114;-57
2022/01/05 01:08:31;;;;;;;3.58;3.05;;;7.40;99.90;;;;;;5094618;28;20419;-58
2022/01/05 01:10:57;;;;;;;3.05;2.85;;;7.40;99.90;;;;;;5094263;28;20050;-58
2022/01/05 01:13:23;;;;;;;4.47;3.72;;;7.40;99.90;;;;;;5094328;28;20028;-58
2022/01/05 01:15:51;;;;;;;2.85;2.65;;;7.30;99.90;;;;;;5094362;28;20034;-58
2022/01/05 01:18:17;;;;;;;2.72;2.53;;;7.40;99.90;;;;;;5094677;28;20599;-58
2022/01/05 01:20:43;;;;;;;2.90;2.70;;;7.50;99.90;;;;;;5093700;28;20123;-57
2022/01/05 01:23:09;;;;;;;2.67;2.47;;;7.50;99.90;;;;;;5093895;28;20053;-58
2022/01/05 01:25:35;;;;;;;3.30;3.10;;;7.50;99.90;;;;;;5086199;28;20040;-57
2022/01/05 01:28:02;;;;;;;3.03;2.83;;;7.50;99.90;;;;;;5094284;28;20360;-58
2022/01/05 01:30:31;;;;;;;3.80;3.50;;;7.40;99.90;;;;;;5093647;28;20024;-58
2022/01/05 01:32:56;;;;;;;3.53;3.22;;;7.30;99.90;;;;;;5093576;28;20107;-58
2022/01/05 01:35:22;;;;;;;4.35;3.90;;;7.20;99.90;;;;;;5093828;28;20115;-58
2022/01/05 01:37:48;;;;;;;4.00;3.65;;;7.20;99.90;;;;;;5094068;28;20031;-58
2022/01/05 01:40:14;;;;;;;4.32;3.92;;;7.20;99.90;;;;;;5093183;28;20036;-58
2022/01/05 01:42:39;;;;;;;4.22;3.17;;;7.20;99.90;;;;;;5093937;28;20111;-58
2022/01/05 01:45:05;;;;;;;4.25;3.85;;;7.10;99.90;;;;;;5092441;28;20111;-58
2022/01/05 01:47:31;;;;;;;4.10;3.80;;;7.10;99.90;;;;;;5092699;28;20115;-58
2022/01/05 01:49:57;;;;;;;6.82;3.70;;;7.10;99.90;;;;;;5092860;28;20146;-58
2022/01/05 01:52:22;;;;;;;4.70;4.05;;;7.10;99.90;;;;;;5092489;28;20368;-58
2022/01/05 01:54:48;;;;;;;3.13;2.92;;;7.10;99.90;;;;;;5093176;28;20064;-57
2022/01/05 01:57:14;;;;;;;3.85;3.38;;;7.00;99.90;;;;;;5093799;28;20556;-58
2022/01/05 01:59:41;;;;;;;4.20;3.90;;;6.90;99.90;;;;;;5093234;28;20051;-57
2022/01/05 02:02:08;;;;;;;5.00;4.60;;;6.80;99.90;;;;;;5093138;28;20035;-57
2022/01/05 02:04:35;;;;;;;4.38;4.07;;;6.60;99.90;;;;;;5092402;28;20031;-58
2022/01/05 02:07:02;;;;;;;5.07;4.68;;;6.50;99.90;;;;;;5093048;28;20366;-58
2022/01/05 02:09:28;;;;;;;5.18;4.68;;;6.50;99.90;;;;;;5091076;28;20755;-58
2022/01/05 02:11:54;;;;;;;5.22;4.85;;;6.50;99.90;;;;;;5092526;28;20024;-57
2022/01/05 02:14:19;;;;;;;4.35;4.03;;;6.40;99.90;;;;;;5092095;28;20027;-58
2022/01/05 02:16:45;;;;;;;5.63;5.13;;;6.40;99.90;;;;;;5091898;28;20024;-58
2022/01/05 02:19:12;;;;;;;4.20;3.80;;;6.40;99.90;;;;;;5092040;28;20110;-57
2022/01/05 02:21:39;;;;;;;4.55;4.25;;;6.30;99.90;;;;;;5074605;28;20057;-57
2022/01/05 02:24:06;;;;;;;5.07;4.68;;;6.30;99.90;;;;;;5091337;28;20024;-58
2022/01/05 02:26:33;;;;;;;4.57;4.28;;;6.20;99.90;;;;;;5092572;28;20031;-58
2022/01/05 02:28:59;;;;;;;4.53;4.22;;;6.20;99.90;;;;;;5091860;28;20059;-58
2022/01/05 02:31:25;;;;;;;3.80;3.50;;;6.10;99.90;;;;;;5091622;28;20449;-58
2022/01/05 02:33:51;;;;;;;4.00;3.65;;;6.10;99.90;;;;;;5092954;28;20395;-56
2022/01/05 02:36:20;;;;;;;3.50;3.20;;;5.90;99.90;;;;;;5092691;28;20032;-58
2022/01/05 02:38:50;;;;;;;3.55;3.25;;;5.90;99.90;;;;;;5093036;28;20023;-57
2022/01/05 02:41:16;;;;;;;3.20;3.00;;;6.00;99.90;;;;;;5092614;28;20032;-57
2022/01/05 02:43:43;;;;;;;3.45;3.25;;;5.90;99.90;;;;;;5091375;28;20027;-57
2022/01/05 02:46:11;;;;;;;2.88;2.67;;;6.00;99.90;;;;;;5074534;28;20028;-58
2022/01/05 02:48:37;;;;;;;3.65;3.35;;;5.90;99.90;;;;;;5092508;28;20409;-56
2022/01/05 02:51:05;;;;;;;3.42;3.22;;;5.90;99.90;;;;;;5092626;28;20027;-57
2022/01/05 02:53:31;;;;;;;3.22;3.03;;;5.90;99.90;;;;;;5092156;28;20051;-58
2022/01/05 02:55:57;;;;;;;3.00;2.80;;;5.90;99.90;;;;;;5091981;28;20040;-59
2022/01/05 02:58:22;;;;;;;3.10;2.90;;;5.90;99.90;;;;;;5091851;28;20433;-58
2022/01/05 03:00:48;;;;;;;2.70;2.60;;;5.90;99.90;;;;;;5092214;28;20108;-58
2022/01/05 03:03:15;;;;;;;2.65;2.55;;;6.00;99.90;;;;;;5092464;28;20027;-57
2022/01/05 03:05:40;;;;;;;2.90;2.70;;;6.00;99.90;;;;;;5092018;28;20067;-58
2022/01/05 03:08:06;;;;;;;3.92;2.97;;;5.90;99.90;;;;;;5092549;28;20055;-58
2022/01/05 03:10:32;;;;;;;3.13;2.92;;;5.90;99.90;;;;;;5092117;28;20162;-58
2022/01/05 03:12:57;;;;;;;3.13;2.92;;;5.90;99.90;;;;;;5092409;28;20308;-58
2022/01/05 03:15:23;;;;;;;3.30;3.10;;;5.90;99.90;;;;;;5091297;28;20686;-58
2022/01/05 03:17:49;;;;;;;3.50;3.30;;;6.00;99.90;;;;;;5091476;28;20683;-58
2022/01/05 03:20:17;;;;;;;3.47;3.17;;;5.90;99.90;;;;;;5091088;28;20025;-56
2022/01/05 03:22:43;;;;;;;3.53;3.33;;;5.90;99.90;;;;;;5090808;28;20024;-58
2022/01/05 03:25:15;;;;;;;3.45;3.25;;;5.90;99.90;;;;;;5091083;28;20024;-58
2022/01/05 03:27:48;;;;;;;2.92;2.72;;;5.80;99.90;;;;;;5091391;28;20088;-58
2022/01/05 03:30:17;;;;;;;2.90;2.70;;;5.90;99.90;;;;;;5091988;28;20036;-58
2022/01/05 03:33:28;;;;;;;7.30;2.40;;;5.90;99.90;;;;;;5091844;28;20088;-58
2022/01/05 03:35:34;;;;;;;2.40;2.30;;;5.90;99.90;;;;;;5073828;28;20028;-58
2022/01/05 03:38:01;;;;;;;2.50;2.40;;;5.80;99.90;;;;;;5092126;28;20383;-58
2022/01/05 03:40:27;;;;;;;2.50;2.40;;;5.80;99.90;;;;;;5091429;28;20100;-58
2022/01/05 03:42:53;;;;;;;2.78;2.67;;;5.80;99.90;;;;;;5091436;28;20024;-57
2022/01/05 03:45:19;;;;;;;2.80;2.60;;;5.90;99.90;;;;;;5091367;28;20158;-58
2022/01/05 03:47:45;;;;;;;2.47;2.28;;;5.80;99.90;;;;;;5091549;28;20459;-57
2022/01/05 03:50:11;;;;;;;2.40;2.30;;;5.70;99.90;;;;;;5091599;28;20047;-57
2022/01/05 03:52:36;;;;;;;2.53;2.33;;;5.70;99.90;;;;;;5091756;28;20024;-57
2022/01/05 03:55:04;;;;;;;2.20;2.10;;;5.60;99.90;;;;;;5090693;28;20111;-57
2022/01/05 03:57:29;;;;;;;2.30;2.20;;;5.60;99.90;;;;;;5091196;28;20028;-58
2022/01/05 03:59:55;;;;;;;2.50;2.40;;;5.60;99.90;;;;;;5091311;28;20527;-58
2022/01/05 04:02:21;;;;;;;2.65;2.45;;;5.60;99.90;;;;;;5091578;28;20054;-57
2022/01/05 04:04:46;;;;;;;2.20;2.10;;;5.50;99.90;;;;;;5091357;28;20080;-58
2022/01/05 04:07:13;;;;;;;2.38;2.28;;;5.50;99.90;;;;;;5091101;28;20119;-58
2022/01/05 04:09:39;;;;;;;3.45;2.17;;;5.60;99.90;;;;;;5091329;28;20036;-57
2022/01/05 04:12:05;;;;;;;2.30;2.20;;;5.50;99.90;;;;;;5073511;28;20031;-56
2022/01/05 04:14:31;;;;;;;2.70;2.60;;;5.50;99.90;;;;;;5090985;28;20525;-57
2022/01/05 04:16:57;;;;;;;2.20;2.10;;;5.50;99.90;;;;;;5091154;28;20028;-58
2022/01/05 04:19:23;;;;;;;4.65;2.17;;;5.60;99.90;;;;;;5090701;28;20024;-57
2022/01/05 04:21:49;;;;;;;3.30;2.83;;;5.60;99.90;;;;;;5090964;28;20051;-57
2022/01/05 04:24:15;;;;;;;2.30;2.20;;;5.50;99.90;;;;;;5091042;28;20030;-57
2022/01/05 04:26:42;;;;;;;2.10;2.00;;;5.50;99.90;;;;;;5091051;28;20028;-58
2022/01/05 04:29:07;;;;;;;2.28;2.17;;;5.50;99.90;;;;;;5091165;28;20028;-57
2022/01/05 04:31:33;;;;;;;2.40;2.30;;;5.30;99.90;;;;;;5091205;28;20040;-58
2022/01/05 04:34:00;;;;;;;2.20;2.10;;;5.30;99.90;;;;;;5073125;28;20582;-57
2022/01/05 04:36:26;;;;;;;2.03;1.92;;;5.30;99.90;;;;;;5090892;28;20099;-57
2022/01/05 04:38:51;;;;;;;2.67;2.47;;;5.30;99.90;;;;;;5073021;28;20035;-58
2022/01/05 04:41:17;;;;;;;3.63;2.63;;;5.20;99.90;;;;;;5090753;28;20024;-58
2022/01/05 04:43:43;;;;;;;3.20;2.47;;;5.20;99.90;;;;;;5073057;28;20028;-56
2022/01/05 04:46:08;;;;;;;2.42;2.22;;;5.20;99.90;;;;;;5090898;28;20024;-57
2022/01/05 04:48:34;;;;;;;3.15;2.88;;;5.10;99.90;;;;;;5090757;28;20036;-57
2022/01/05 04:50:59;;;;;;;2.78;2.58;;;5.10;99.90;;;;;;5090980;28;20032;-57
2022/01/05 04:53:25;;;;;;;2.80;2.60;;;5.10;99.90;;;;;;5090844;28;20035;-58
2022/01/05 04:55:51;;;;;;;3.00;2.80;;;5.10;99.90;;;;;;5090580;28;20123;-57
2022/01/05 04:58:17;;;;;;;2.67;2.58;;;5.10;99.90;;;;;;5091090;28;20560;-57
2022/01/05 05:00:43;;;;;;;2.60;2.50;;;5.10;99.90;;;;;;5090609;28;20029;-57
2022/01/05 05:03:09;;;;;;;2.65;2.55;;;5.00;99.90;;;;;;5090909;28;20028;-57
2022/01/05 05:05:35;;;;;;;2.50;2.40;;;5.10;99.90;;;;;;5090794;28;20028;-57
2022/01/05 05:08:02;;;;;;;2.38;2.28;;;5.00;99.90;;;;;;5093866;28;20107;-58
2022/01/05 05:10:27;;;;;;;2.08;1.98;;;5.00;99.90;;;;;;5094361;28;20073;-58
2022/01/05 05:12:53;;;;;;;2.28;2.17;;;5.00;99.90;;;;;;5094513;28;20032;-58
2022/01/05 05:15:19;;;;;;;1.95;1.85;;;5.00;99.90;;;;;;5094198;28;20024;-58
2022/01/05 05:17:44;;;;;;;1.70;1.70;;;5.00;99.90;;;;;;5094313;28;20459;-57
2022/01/05 05:20:11;;;;;;;1.98;1.88;;;4.90;99.90;;;;;;5094525;28;20467;-57
2022/01/05 05:22:36;;;;;;;1.50;1.50;;;4.80;99.90;;;;;;5093675;28;20024;-58
2022/01/05 05:25:06;;;;;;;1.95;1.85;;;4.80;99.90;;;;;;5094338;28;20539;-56
2022/01/05 05:27:31;;;;;;;1.65;1.63;;;4.80;99.90;;;;;;5093896;28;20012;-56
2022/01/05 05:29:57;;;;;;;1.90;1.80;;;4.70;99.90;;;;;;5094376;28;20102;-57
2022/01/05 05:32:23;;;;;;;2.00;1.90;;;4.70;99.90;;;;;;5093621;28;20103;-57
2022/01/05 05:34:48;;;;;;;1.90;1.80;;;4.70;99.90;;;;;;5093315;28;20683;-58
2022/01/05 05:37:17;;;;;;;1.95;1.85;;;4.60;99.90;;;;;;5094330;28;20031;-58
2022/01/05 05:39:44;;;;;;;2.08;1.98;;;4.60;99.90;;;;;;5093728;28;20082;-57
2022/01/05 05:42:10;;;;;;;2.20;2.10;;;4.60;99.90;;;;;;5094246;28;20024;-57
2022/01/05 05:44:36;;;;;;;2.17;2.00;;;4.60;99.90;;;;;;5093674;28;20387;-58
2022/01/05 05:47:03;;;;;;;2.40;2.30;;;4.60;99.90;;;;;;5093966;28;20020;-57
2022/01/05 05:49:29;;;;;;;2.15;2.05;;;4.60;99.90;;;;;;5093772;28;20089;-56
2022/01/05 05:51:54;;;;;;;2.10;2.00;;;4.60;99.90;;;;;;5093486;28;20064;-57
2022/01/05 05:54:20;;;;;;;2.63;2.47;;;4.60;99.90;;;;;;5093438;28;20498;-58
2022/01/05 05:56:46;;;;;;;2.28;2.17;;;4.50;99.90;;;;;;5093478;28;20072;-57
2022/01/05 05:59:11;;;;;;;2.15;1.88;;;4.50;99.90;;;;;;5093152;28;20024;-58
2022/01/05 06:01:37;;;;;;;1.90;1.80;;;4.50;99.90;;;;;;5093116;28;20486;-58
2022/01/05 06:04:03;;;;;;;2.10;2.00;;;4.40;99.90;;;;;;5093642;28;20486;-58
2022/01/05 06:06:29;;;;;;;3.60;2.20;;;4.50;99.90;;;;;;5093427;28;20028;-59
2022/01/05 06:08:55;;;;;;;2.25;2.15;;;4.40;99.90;;;;;;5074470;28;20135;-58
2022/01/05 06:11:21;;;;;;;2.03;1.92;;;4.40;99.90;;;;;;5075124;28;20047;-59
2022/01/05 06:13:47;;;;;;;3.05;2.10;;;4.30;99.90;;;;;;5093164;28;20024;-59
2022/01/05 06:16:12;;;;;;;2.28;2.17;;;4.30;99.90;;;;;;5058274;28;20032;-59
2022/01/05 06:18:38;;;;;;;2.15;2.05;;;4.30;99.90;;;;;;5087994;28;20075;-58
2022/01/05 06:21:04;;;;;;;2.20;2.10;;;4.30;99.90;;;;;;5092976;28;20012;-58
2022/01/05 06:23:30;;;;;;;2.10;2.00;;;4.20;99.90;;;;;;5092713;28;20020;-58
2022/01/05 06:25:55;;;;;;;2.00;1.90;;;4.10;99.90;;;;;;5092706;28;20112;-56
2022/01/05 06:28:21;;;;;;;2.30;2.20;;;4.20;99.90;;;;;;5092222;28;20635;-57
2022/01/05 06:30:47;;;;;;;2.15;2.05;;;4.20;99.90;;;;;;5073456;28;20034;-58
2022/01/05 06:33:13;;;;;;;2.97;2.67;;;4.30;99.90;;;;;;5091441;28;20026;-59
2022/01/05 06:35:39;;;;;;;2.05;1.95;;;4.20;99.90;;;;;;5091008;28;20059;-58
2022/01/05 06:38:04;;;;;;;3.78;2.00;;;4.20;99.90;;;;;;5091449;28;20458;-58
2022/01/05 06:40:30;;;;;;;35.40;16.70;;;4.20;99.90;;;;;;5092334;28;20036;-58
2022/01/05 06:42:56;;;;;;;19.77;11.02;;;4.10;99.90;;;;;;5092604;28;20028;-59
2022/01/05 06:45:22;;;;;;;2.45;2.25;;;4.10;99.90;;;;;;5092329;28;20024;-57
2022/01/05 06:47:48;;;;;;;32.67;14.35;;;4.10;99.90;;;;;;5092509;28;20479;-58
2022/01/05 06:50:14;;;;;;;30.92;12.52;;;4.10;99.90;;;;;;5092807;28;20071;-59
2022/01/05 06:52:40;;;;;;;13.77;6.63;;;4.00;99.90;;;;;;5092290;28;20036;-59
2022/01/05 06:55:08;;;;;;;36.13;14.23;;;4.00;99.90;;;;;;5092081;28;20044;-56
2022/01/05 06:57:33;;;;;;;3.75;1.83;;;4.00;99.90;;;;;;5073985;28;20024;-58
2022/01/05 06:59:59;;;;;;;16.38;7.75;;;4.10;99.90;;;;;;5092368;28;20032;-59
2022/01/05 07:02:24;;;;;;;4.28;3.70;;;3.90;99.90;;;;;;5092227;28;20028;-58
2022/01/05 07:04:50;;;;;;;1.95;1.85;;;3.80;99.90;;;;;;5092282;28;20158;-57
2022/01/05 07:07:17;;;;;;;39.25;17.10;;;3.90;99.90;;;;;;5091616;28;20059;-59
2022/01/05 07:09:43;;;;;;;2.63;2.42;;;3.90;99.90;;;;;;5091862;28;20028;-58
2022/01/05 07:12:09;;;;;;;10.90;5.93;;;3.90;99.90;;;;;;5092264;28;20474;-58
2022/01/05 07:14:35;;;;;;;2.55;2.35;;;3.80;99.90;;;;;;5090945;28;20181;-58
2022/01/05 07:17:00;;;;;;;2.40;2.20;;;3.80;99.90;;;;;;5092323;28;20107;-59
2022/01/05 07:19:26;;;;;;;5.93;4.15;;;3.70;99.90;;;;;;5091843;28;20113;-59
2022/01/05 07:21:52;;;;;;;9.63;6.20;;;3.60;99.90;;;;;;5073939;28;20028;-59
2022/01/05 07:24:19;;;;;;;4.50;3.05;;;3.50;99.90;;;;;;5091947;28;20052;-59
2022/01/05 07:26:46;;;;;;;3.00;2.40;;;3.50;99.90;;;;;;5091666;28;20048;-59
2022/01/05 07:29:13;;;;;;;2.67;2.58;;;3.50;99.90;;;;;;5091810;28;20443;-58
2022/01/05 07:31:39;;;;;;;13.55;8.30;;;3.60;99.90;;;;;;5091365;28;20059;-59
2022/01/05 07:34:05;;;;;;;42.03;20.38;;;3.50;99.90;;;;;;5092109;28;20032;-58
2022/01/05 07:36:31;;;;;;;18.50;9.75;;;3.50;99.90;;;;;;5091420;28;20036;-59
2022/01/05 07:38:56;;;;;;;50.45;19.85;;;3.50;99.90;;;;;;5091468;28;20024;-59
2022/01/05 07:41:22;;;;;;;3.03;2.83;;;3.40;99.90;;;;;;5073096;28;20028;-57
2022/01/05 07:43:48;;;;;;;5.90;5.18;;;3.50;99.90;;;;;;5091960;28;20082;-59
2022/01/05 07:46:13;;;;;;;6.70;6.10;;;3.50;99.90;;;;;;5056678;28;20670;-59
2022/01/05 07:48:39;;;;;;;3.45;3.15;;;3.50;99.90;;;;;;5090743;28;20039;-59
2022/01/05 07:51:05;;;;;;;2.30;2.20;;;3.40;99.90;;;;;;5091411;28;20035;-60
2022/01/05 07:53:31;;;;;;;2.58;2.38;;;3.40;99.90;;;;;;5091298;28;20127;-60
2022/01/05 07:55:56;;;;;;;4.50;4.20;;;3.40;99.90;;;;;;5090819;28;20100;-59
2022/01/05 07:58:23;;;;;;;2.63;2.42;;;3.40;99.90;;;;;;5090862;28;20399;-60
2022/01/05 08:00:49;;;;;;;5.55;2.67;;;3.50;99.90;;;;;;5090970;28;20384;-58
2022/01/05 08:03:15;;;;;;;2.97;2.78;;;3.30;99.90;;;;;;5091430;28;20486;-59
2022/01/05 08:05:41;;;;;;;2.58;2.45;;;3.30;99.90;;;;;;5091041;28;20039;-59
2022/01/05 08:08:06;;;;;;;2.83;2.63;;;3.40;99.90;;;;;;5091454;28;20028;-60
2022/01/05 08:10:32;;;;;;;2.50;2.30;;;3.40;99.90;;;;;;5090795;28;20024;-60
2022/01/05 08:12:58;;;;;;;2.70;2.60;;;3.30;99.90;;;;;;5091696;28;20020;-59
2022/01/05 08:15:23;;;;;;;2.65;2.55;;;3.40;99.90;;;;;;5090905;28;20024;-58
2022/01/05 08:17:49;;;;;;;2.60;2.40;;;3.40;99.90;;;;;;5091202;28;20031;-59
2022/01/05 08:20:14;;;;;;;2.10;1.95;;;3.30;99.90;;;;;;5091124;28;20024;-59
2022/01/05 08:22:42;;;;;;;2.83;2.63;;;3.30;99.90;;;;;;5090403;28;20102;-59
2022/01/05 08:25:20;;;;;;;2.88;2.50;;;3.20;99.90;;;;;;5072603;28;20028;-58
2022/01/05 08:27:46;;;;;;;2.55;2.35;;;3.30;99.90;;;;;;5091323;28;20107;-59
2022/01/05 08:30:18;;;;;;;2.13;2.03;;;3.30;99.90;;;;;;5090933;28;20099;-59
2022/01/05 08:32:44;;;;;;;2.65;2.55;;;3.30;99.90;;;;;;5090713;28;20024;-59
2022/01/05 08:35:11;;;;;;;3.00;2.72;;;3.40;99.90;;;;;;5091095;28;20024;-59
2022/01/05 08:37:39;;;;;;;2.70;2.50;;;3.30;99.90;;;;;;5090516;28;20024;-59
2022/01/05 08:40:05;;;;;;;3.78;3.47;;;3.40;99.90;;;;;;5064914;28;20086;-59
2022/01/05 08:42:30;;;;;;;2.65;2.28;;;3.40;99.90;;;;;;5083739;28;20035;-59
2022/01/05 08:44:58;;;;;;;2.25;2.15;;;3.30;99.90;;;;;;5076763;28;20016;-59
2022/01/05 08:47:23;;;;;;;2.33;2.13;;;3.40;99.90;;;;;;5094666;28;20028;-59
2022/01/05 08:49:49;;;;;;;2.72;2.53;;;3.40;99.90;;;;;;5093109;28;20793;-59
2022/01/05 08:52:15;;;;;;;2.83;2.63;;;3.30;99.90;;;;;;5086444;28;20055;-59
2022/01/05 08:54:40;;;;;;;2.67;2.47;;;3.30;99.90;;;;;;5091280;28;20062;-59
2022/01/05 08:57:06;;;;;;;2.40;2.30;;;3.40;99.90;;;;;;5094435;28;20544;-59
2022/01/05 08:59:32;;;;;;;2.45;2.25;;;3.40;99.90;;;;;;5094219;28;20098;-59
2022/01/05 09:01:57;;;;;;;2.58;2.40;;;3.30;99.90;;;;;;5094523;28;20113;-59
2022/01/05 09:04:23;;;;;;;1.92;1.83;;;3.40;99.90;;;;;;5076077;28;20056;-59
2022/01/05 09:06:49;;;;;;;2.10;2.00;;;3.50;99.90;;;;;;5094402;28;20031;-58
2022/01/05 09:09:14;;;;;;;2.25;2.05;;;3.40;99.90;;;;;;5094716;28;20028;-59
2022/01/05 09:11:40;;;;;;;3.50;2.20;;;3.40;99.90;;;;;;5093976;28;20434;-58
2022/01/05 09:14:06;;;;;;;3.38;3.13;;;3.40;99.90;;;;;;5094164;28;20036;-59
2022/01/05 09:16:32;;;;;;;2.30;2.20;;;3.40;99.90;;;;;;5093860;28;20036;-59
2022/01/05 09:18:58;;;;;;;2.00;1.90;;;3.40;99.90;;;;;;5094037;28;20056;-58
2022/01/05 09:21:40;;;;;;;2.20;2.10;;;3.40;99.90;;;;;;5094036;28;20039;-59
2022/01/05 09:24:06;;;;;;;2.40;2.30;;;3.40;99.90;;;;;;5093880;28;20471;-60
2022/01/05 09:26:31;;;;;;;2.60;2.40;;;3.30;99.90;;;;;;5068140;28;20039;-59
2022/01/05 09:28:57;;;;;;;2.40;2.30;;;3.30;99.90;;;;;;5075759;28;20038;-59
2022/01/05 09:31:23;;;;;;;2.40;2.20;;;3.30;99.90;;;;;;5093681;28;20056;-59
2022/01/05 09:33:49;;;;;;;3.42;2.75;;;3.30;99.90;;;;;;5093822;28;20031;-59
2022/01/05 09:36:29;;;;;;;2.45;2.35;;;3.20;99.90;;;;;;5093999;28;20035;-59
2022/01/05 09:41:57;;;;;;;2.55;2.35;;;3.30;99.90;;;;;;5093245;28;20488;-59
2022/01/05 09:44:30;;;;;;;2.55;2.35;;;3.30;99.90;;;;;;5086076;28;20069;-59
2022/01/05 09:47:30;;;;;;;3.22;2.90;;;3.40;99.90;;;;;;5093564;28;20027;-59
2022/01/05 09:50:01;;;;;;;2.78;2.45;;;3.40;99.90;;;;;;5093636;28;20028;-59
2022/01/05 09:52:27;;;;;;;2.50;2.40;;;3.40;99.90;;;;;;5092881;28;20032;-60
2022/01/05 09:54:53;;;;;;;2.10;2.00;;;3.50;99.90;;;;;;5093164;28;20055;-59
2022/01/05 09:57:21;;;;;;;3.95;2.75;;;3.50;99.90;;;;;;5093568;28;20486;-59
2022/01/05 09:59:48;;;;;;;2.17;2.08;;;3.50;99.90;;;;;;5093137;28;20035;-59
2022/01/05 10:02:16;;;;;;;3.95;3.65;;;3.50;99.90;;;;;;5093636;28;20044;-60
2022/01/05 10:04:43;;;;;;;3.03;2.83;;;3.60;99.90;;;;;;5075084;28;20016;-59
2022/01/05 10:07:09;;;;;;;2.83;2.63;;;3.60;99.90;;;;;;5093612;28;20505;-60
2022/01/05 10:09:39;;;;;;;3.40;2.85;;;3.70;99.90;;;;;;5093101;28;20032;-60
2022/01/05 10:12:05;;;;;;;2.95;2.70;;;3.80;99.90;;;;;;5093343;28;20410;-60
2022/01/05 10:14:31;;;;;;;2.72;2.53;;;3.90;99.90;;;;;;5092614;28;20341;-58
2022/01/05 10:17:06;;;;;;;2.20;2.10;;;3.90;99.90;;;;;;5075158;28;20043;-58
2022/01/05 10:19:33;;;;;;;2.40;2.25;;;4.00;99.90;;;;;;5093229;28;20043;-59
2022/01/05 10:21:59;;;;;;;2.92;2.72;;;4.00;99.90;;;;;;5093143;28;20016;-60
2022/01/05 10:24:41;;;;;;;3.15;2.95;;;4.10;99.90;;;;;;5093087;28;20024;-59
2022/01/05 10:27:08;;;;;;;1.95;1.85;;;4.10;99.90;;;;;;5056303;28;20529;-59
2022/01/05 10:29:34;;;;;;;2.45;2.35;;;4.10;99.90;;;;;;5072943;28;20052;-59
2022/01/05 10:32:01;;;;;;;1.85;1.75;;;4.10;99.90;;;;;;5088439;28;20043;-59
2022/01/05 10:34:32;;;;;;;2.17;2.08;;;4.10;99.90;;;;;;5092949;28;20493;-59
2022/01/05 10:37:06;;;;;;;1.88;1.77;;;4.10;99.90;;;;;;5063963;28;20036;-59
2022/01/05 10:39:39;;;;;;;2.15;2.05;;;4.20;99.90;;;;;;5088381;28;20028;-59
2022/01/05 10:42:13;;;;;;;3.10;2.90;;;4.30;99.90;;;;;;5092582;28;20024;-59
2022/01/05 10:44:44;;;;;;;2.65;2.08;;;4.20;99.90;;;;;;5092416;28;20135;-58
2022/01/05 10:47:14;;;;;;;2.88;2.67;;;4.30;99.90;;;;;;5074443;28;20447;-59
2022/01/05 10:49:41;;;;;;;5.47;2.40;;;4.30;99.90;;;;;;5092814;28;20360;-59
2022/01/05 10:52:27;;;;;;;2.22;2.10;;;4.30;99.90;;;;;;5092959;28;20027;-59
2022/01/05 10:54:55;;;;;;;3.95;3.20;;;4.30;99.90;;;;;;5074160;28;20066;-59
2022/01/05 10:57:22;;;;;;;2.15;2.05;;;4.20;99.90;;;;;;5091967;28;20054;-59
2022/01/05 10:59:53;;;;;;;2.25;2.15;;;4.40;99.90;;;;;;5091760;28;20035;-58
2022/01/05 11:02:22;;;;;;;1.65;1.58;;;4.50;99.90;;;;;;5091852;28;20119;-58
2022/01/05 11:04:48;;;;;;;2.28;1.95;;;4.50;99.90;;;;;;5091641;28;20028;-58
2022/01/05 11:07:25;;;;;;;8.48;6.65;;;4.50;99.90;;;;;;5074060;28;20032;-59
2022/01/05 11:10:05;;;;;;;2.88;2.67;;;4.40;99.90;;;;;;5092574;28;20115;-60
2022/01/05 11:12:51;;;;;;;2.70;2.50;;;4.30;99.90;;;;;;5091631;28;20120;-59
2022/01/05 11:15:22;;;;;;;2.03;1.92;;;4.40;99.90;;;;;;5091962;28;20031;-59
2022/01/05 11:18:09;;;;;;;2.20;2.10;;;4.50;99.90;;;;;;5091990;28;20035;-59
2022/01/05 11:20:42;;;;;;;2.88;2.67;;;4.50;99.90;;;;;;5092269;28;20112;-59
2022/01/05 11:23:08;;;;;;;2.45;2.35;;;4.60;99.90;;;;;;5090173;28;20022;-59
2022/01/05 11:25:38;;;;;;;3.63;2.13;;;4.50;99.90;;;;;;5091802;28;20442;-59
2022/01/05 11:28:06;;;;;;;2.20;2.00;;;4.50;99.90;;;;;;5083937;28;20024;-59
2022/01/05 11:30:32;;;;;;;2.78;2.58;;;4.60;99.90;;;;;;5081147;28;20070;-59
2022/01/05 11:32:59;;;;;;;4.05;3.50;;;4.50;99.90;;;;;;5081289;28;20478;-59
2022/01/05 11:35:25;;;;;;;4.85;4.07;;;4.50;99.90;;;;;;5080437;28;20115;-59
2022/01/05 11:37:50;;;;;;;8.98;4.40;;;4.50;99.90;;;;;;5080893;28;20450;-59
2022/01/05 11:40:18;;;;;;;2.08;1.98;;;4.70;99.90;;;;;;5079857;28;20060;-59
2022/01/05 11:42:48;;;;;;;2.33;2.22;;;4.70;99.90;;;;;;5080994;28;20020;-59
2022/01/05 11:45:29;;;;;;;2.22;2.13;;;4.80;99.90;;;;;;5080769;28;20024;-59
2022/01/05 11:48:19;;;;;;;2.10;2.00;;;4.60;99.90;;;;;;5081068;28;20107;-59
2022/01/05 11:50:51;;;;;;;2.10;2.00;;;4.50;99.90;;;;;;5090755;28;20039;-60
2022/01/05 11:53:34;;;;;;;2.30;2.13;;;4.40;99.90;;;;;;5091598;28;20039;-59
2022/01/05 11:56:01;;;;;;;2.40;2.30;;;4.20;99.90;;;;;;5090646;28;20073;-59
2022/01/05 11:58:33;;;;;;;1.90;1.80;;;4.10;99.90;;;;;;5090996;28;20382;-59
2022/01/05 12:01:17;;;;;;;5.18;3.78;;;3.90;99.90;;;;;;5090871;28;20023;-59
2022/01/05 12:03:58;;;;;;;17.10;7.38;;;3.90;99.90;;;;;;5090993;28;20020;-60
2022/01/05 12:06:31;;;;;;;15.30;7.95;;;4.00;99.90;;;;;;5090681;28;20035;-60
2022/01/05 12:09:00;;;;;;;11.38;5.70;;;4.00;99.90;;;;;;5091003;28;20477;-60
2022/01/05 12:11:42;;;;;;;5.30;3.75;;;4.00;99.90;;;;;;5090879;28;20115;-59
2022/01/05 12:14:13;;;;;;;13.48;8.63;;;4.00;99.90;;;;;;5090705;28;20180;-59
2022/01/05 12:17:01;;;;;;;8.95;6.38;;;3.80;99.90;;;;;;5090555;28;20572;-58
2022/01/05 12:19:35;;;;;;;19.75;11.43;;;3.80;99.90;;;;;;5090019;28;20035;-59
2022/01/05 12:22:15;;;;;;;3.45;3.15;;;3.80;99.90;;;;;;5090969;28;20032;-59
2022/01/05 12:25:04;;;;;;;4.57;3.40;;;3.80;99.90;;;;;;5090532;28;20034;-59
2022/01/05 12:27:58;;;;;;;8.90;7.20;;;3.80;99.90;;;;;;5080761;28;20020;-59
2022/01/05 12:30:26;;;;;;;5.10;4.68;;;3.90;99.90;;;;;;5069753;28;20092;-59
2022/01/05 12:33:08;;;;;;;6.50;5.60;;;3.90;99.90;;;;;;5072582;28;20127;-59
2022/01/05 12:35:53;;;;;;;5.07;4.60;;;3.90;99.90;;;;;;5090758;28;20099;-59
2022/01/05 12:38:38;;;;;;;4.90;4.50;;;3.90;99.90;;;;;;5070876;28;20021;-59
2022/01/05 12:41:28;;;;;;;3.92;3.72;;;3.90;99.90;;;;;;5071928;28;20020;-59
2022/01/05 12:43:55;;;;;;;3.65;3.38;;;3.70;99.90;;;;;;5090808;28;20359;-59
2022/01/05 12:46:39;;;;;;;3.60;3.30;;;3.70;99.90;;;;;;5090684;28;20032;-59
2022/01/05 12:49:12;;;;;;;3.92;3.63;;;3.80;99.90;;;;;;5090269;28;20043;-60
2022/01/05 12:51:42;;;;;;;4.68;4.05;;;3.80;99.90;;;;;;5077350;28;20479;-59
2022/01/05 12:54:12;;;;;;;4.63;3.78;;;3.70;99.90;;;;;;5090722;28;20043;-59
2022/01/05 12:56:50;;;;;;;4.07;3.67;;;3.50;99.90;;;;;;5090314;28;20115;-59
2022/01/05 12:59:17;;;;;;;3.50;3.20;;;3.60;99.90;;;;;;5090575;28;20083;-59
2022/01/05 13:01:44;;;;;;;4.47;3.63;;;3.50;99.90;;;;;;5090137;28;20486;-59